Meteo Giornale » Osservazioni meteo Russia » Voronez
ore: 19:30 - Osservazioni Meteo Voronez
Lat. 51° 39' N Lon. 39° 15' E Alt. 154 metri s.l.m.
23 °C
Sereno
Temp. 24 Ore
11 °C
27 °C
Nord
7.2 Km/h
Dew point 8 °C
Umidità 38 %
Visibilità 10 Km
Il sole sorge alle ore 05:33
Il sole tramonta alle ore 19:12
| Data e Ora | Cielo e Fenomeni | T °C | DP °C | Um. % | Pres. hPa | Vis. km | Vento km/h | |
|---|---|---|---|---|---|---|---|---|
| Oggi h: 19:30 | Sereno | 23 | 8 | 38 | 1019 | 10 | N 7.2 | |
| Oggi h: 19:00 | Sereno | 23 | 8 | 38 | 1019 | 10 | N 7.2 | |
| Oggi h: 18:30 | Sereno | 24 | 8 | 35 | 1019 | 10 | N 7.2 | |
| Oggi h: 18:00 | Sereno | 24 | 8 | 35 | 1019 | 10 | N 7.2 | |
| Oggi h: 17:30 | Sereno | 26 | 8 | 31 | 1019 | 10 | SO 14.4 | |
| Oggi h: 17:00 | Sereno | 26 | 8 | 31 | 1019 | 10 | S/SO 14.4 | |
| Oggi h: 16:30 | Sereno | 26 | 8 | 31 | 1019 | 10 | S/SO 18 | |
| Oggi h: 16:00 | Sereno | 27 | 8 | 30 | 1019 | 10 | SO 18 | |
| Oggi h: 15:30 | Sereno | 27 | 8 | 30 | 1020 | 10 | S/SO 18 | |
| Oggi h: 15:00 | Sereno | 27 | 7 | 28 | 1020 | 10 | SO 21.6 | |
| Oggi h: 14:30 | Sereno | 26 | 8 | 31 | 1020 | 10 | S/SO 21.6 | |
| Oggi h: 14:00 | Sereno | 27 | 8 | 30 | 1020 | 10 | S/SO 21.6 | |
| Oggi h: 13:30 | Sereno | 27 | 8 | 30 | 1020 | 10 | S/SO 18 | |
| Oggi h: 13:00 | Sereno | 26 | 8 | 31 | 1020 | 10 | SO 18 | |
| Oggi h: 12:30 | Sereno | 25 | 9 | 36 | 1020 | 10 | SO 14.4 | |
| Oggi h: 12:00 | Sereno | 24 | 7 | 33 | 1021 | 10 | O/SO 18 | |
| Oggi h: 11:30 | Sereno | 26 | 8 | 31 | 1021 | 10 | O/SO 18 | |
| Oggi h: 11:00 | Sereno | 25 | 10 | 38 | 1021 | 10 | O/SO 18 | |
| Oggi h: 10:30 | Sereno | 23 | 9 | 40 | 1021 | 10 | SO 14.4 | |
| Oggi h: 10:00 | Sereno | 21 | 9 | 46 | 1021 | 10 | SO 10.8 | |
| Oggi h: 09:30 | Sereno | 20 | 9 | 49 | 1021 | 10 | O/SO 14.4 | |
| Oggi h: 09:00 | Sereno | 20 | 9 | 49 | 1021 | 10 | O/SO 10.8 | |
| Oggi h: 08:30 | Sereno | 20 | 8 | 45 | 1021 | 10 | SO 14.4 | |
| Oggi h: 08:00 | Sereno | 19 | 8 | 48 | 1021 | 10 | SO 10.8 | |
| Oggi h: 07:30 | Sereno | 18 | 9 | 55 | 1021 | 10 | N 7.2 | |
| Oggi h: 07:00 | Sereno | 15 | 11 | 76 | 1021 | 10 | N 7.2 | |
| Oggi h: 06:30 | Sereno | 13 | 11 | 87 | 1021 | 10 | N 7.2 | |
| Oggi h: 06:00 | Sereno | 12 | 10 | 87 | 1021 | 10 | N 7.2 | |
| Oggi h: 05:30 | Sereno | 12 | 10 | 87 | 1021 | 10 | N 7.2 | |
| Oggi h: 05:00 | Sereno | 11 | 9 | 87 | 1021 | 10 | SE 10.8 | |
| Oggi h: 04:30 | Sereno | 11 | 9 | 87 | 1021 | 10 | N 7.2 | |
| Oggi h: 04:00 | Sereno | 11 | 9 | 87 | 1021 | 10 | N 7.2 | |
| Oggi h: 03:30 | Sereno | 11 | 9 | 87 | 1021 | 10 | N 7.2 | |
| Oggi h: 03:00 | Sereno | 11 | 9 | 87 | 1021 | 10 | N 7.2 | |
| Oggi h: 02:30 | Sereno | 12 | 9 | 81 | 1021 | 10 | N 3.6 | |
| Oggi h: 02:00 | Sereno | 12 | 9 | 81 | 1021 | 10 | N 7.2 | |
| Oggi h: 01:30 | Sereno | 14 | 10 | 76 | 1021 | 10 | N 7.2 | |
| Oggi h: 01:00 | Sereno | 14 | 9 | 71 | 1021 | 10 | N 7.2 | |
| Oggi h: 00:30 | Sereno | 15 | 10 | 72 | 1021 | 10 | E/SE 10.8 | |
| Oggi h: 00:00 | Sereno | 15 | 9 | 67 | 1021 | 10 | E/SE 10.8 | |
| Ieri h: 23:30 | Sereno | 14 | 9 | 71 | 1021 | 10 | N 7.2 | |
| Ieri h: 23:00 | Sereno | 15 | 10 | 72 | 1021 | 10 | E/SE 10.8 | |
| Ieri h: 22:30 | Sereno | 15 | 10 | 72 | 1021 | 10 | E/SE 10.8 | |
| Ieri h: 22:00 | Sereno | 16 | 10 | 67 | 1021 | 10 | E/SE 10.8 | |
| Ieri h: 21:30 | Sereno | 15 | 10 | 72 | 1021 | 10 | E/SE 10.8 | |
| Ieri h: 21:00 | Sereno | 16 | 10 | 67 | 1021 | 10 | N 7.2 | |



